Time;durP1;ratioP1;P1;durP2;ratioP2;P2;SDS_P1;SDS_P2;PMS_P1;PMS_P2;Temp;Humidity;BMP_temperature;BMP_pressure;BME280_temperature;BME280_humidity;BME280_pressure;Samples;Min_cycle;Max_cycle;Signal;HPM_P1;HPM_P2
2023/09/14 00:00:46;;;;;;;4.28;1.52;;;;;;;;;;5049512;28;20045;-74
2023/09/14 00:03:13;;;;;;;3.05;1.42;;;;;;;;;;5049427;28;20141;-73
2023/09/14 00:05:40;;;;;;;3.42;1.60;;;;;;;;;;5049540;28;20065;-74
2023/09/14 00:08:08;;;;;;;2.40;1.42;;;;;;;;;;5049140;28;20053;-73
2023/09/14 00:10:35;;;;;;;4.43;1.60;;;;;;;;;;5049792;28;20049;-72
2023/09/14 00:13:02;;;;;;;1.33;1.00;;;;;;;;;;5049446;28;20083;-71
2023/09/14 00:15:30;;;;;;;2.50;1.40;;;;;;;;;;5049135;28;20080;-74
2023/09/14 00:17:56;;;;;;;2.08;1.20;;;;;;;;;;5048977;28;20091;-73
2023/09/14 00:20:26;;;;;;;4.75;1.75;;;;;;;;;;5049215;28;20049;-74
2023/09/14 00:22:55;;;;;;;3.40;1.00;;;;;;;;;;5048758;28;20060;-72
2023/09/14 00:25:22;;;;;;;3.30;1.50;;;;;;;;;;5049129;28;20045;-74
2023/09/14 00:27:50;;;;;;;2.95;1.27;;;;;;;;;;5048961;28;20437;-74
2023/09/14 00:30:19;;;;;;;2.63;1.27;;;;;;;;;;5049032;28;20464;-73
2023/09/14 00:32:47;;;;;;;3.17;1.58;;;;;;;;;;5048901;28;20050;-73
2023/09/14 00:35:14;;;;;;;2.13;1.40;;;;;;;;;;5053296;28;20600;-73
2023/09/14 00:37:42;;;;;;;3.22;1.45;;;;;;;;;;5053101;28;20045;-73
2023/09/14 00:40:10;;;;;;;2.63;1.40;;;;;;;;;;5053070;28;20088;-73
2023/09/14 00:42:41;;;;;;;2.53;1.50;;;;;;;;;;5052965;28;20041;-72
2023/09/14 00:45:09;;;;;;;2.33;1.30;;;;;;;;;;5053020;28;20041;-73
2023/09/14 00:47:38;;;;;;;2.00;1.30;;;;;;;;;;5052642;28;20075;-73
2023/09/14 00:50:07;;;;;;;2.47;1.52;;;;;;;;;;5066264;28;20334;-73
2023/09/14 00:52:36;;;;;;;2.03;1.17;;;;;;;;;;5072846;28;20041;-74
2023/09/14 00:55:05;;;;;;;3.40;1.30;;;;;;;;;;5072696;28;20053;-74
2023/09/14 00:57:33;;;;;;;2.05;1.27;;;;;;;;;;5054480;28;20044;-74
2023/09/14 01:00:02;;;;;;;2.20;1.17;;;;;;;;;;5072854;28;20048;-73
2023/09/14 01:02:28;;;;;;;1.92;1.15;;;;;;;;;;5072299;28;20047;-73
2023/09/14 01:04:55;;;;;;;2.05;1.40;;;;;;;;;;5072588;28;20040;-74
2023/09/14 01:07:22;;;;;;;2.70;1.30;;;;;;;;;;5072437;28;20136;-74
2023/09/14 01:09:49;;;;;;;2.88;1.33;;;;;;;;;;5072461;28;20127;-72
2023/09/14 01:12:16;;;;;;;2.38;1.20;;;;;;;;;;5072445;28;20044;-72
2023/09/14 01:15:02;;;;;;;3.10;1.45;;;;;;;;;;5072154;28;20048;-74
2023/09/14 01:17:50;;;;;;;2.60;1.10;;;;;;;;;;5054199;28;20064;-74
2023/09/14 01:20:43;;;;;;;2.45;1.05;;;;;;;;;;5072572;28;20102;-73
2023/09/14 01:23:19;;;;;;;2.13;1.35;;;;;;;;;;5072034;28;20072;-73
2023/09/14 01:25:47;;;;;;;4.00;1.30;;;;;;;;;;5071921;28;20113;-73
2023/09/14 01:28:14;;;;;;;1.70;1.13;;;;;;;;;;5054145;28;20139;-74
2023/09/14 01:30:42;;;;;;;1.83;1.10;;;;;;;;;;5072401;28;20048;-74
2023/09/14 01:33:12;;;;;;;2.33;1.40;;;;;;;;;;5071744;28;20044;-72
2023/09/14 01:35:49;;;;;;;1.77;1.02;;;;;;;;;;5071883;28;20670;-74
2023/09/14 01:38:17;;;;;;;2.35;1.50;;;;;;;;;;5071595;28;20531;-73
2023/09/14 01:40:45;;;;;;;3.28;1.33;;;;;;;;;;5071959;28;20046;-74
2023/09/14 01:43:13;;;;;;;2.28;1.10;;;;;;;;;;5071779;28;20049;-73
2023/09/14 01:45:41;;;;;;;2.25;1.23;;;;;;;;;;5070723;28;20504;-72
2023/09/14 01:48:14;;;;;;;2.75;1.30;;;;;;;;;;5071694;28;20056;-72
2023/09/14 01:50:40;;;;;;;2.45;1.85;;;;;;;;;;5071708;28;20053;-74
2023/09/14 01:53:07;;;;;;;2.42;1.33;;;;;;;;;;5071662;28;20044;-74
2023/09/14 01:55:34;;;;;;;2.10;1.20;;;;;;;;;;5071808;28;20640;-73
2023/09/14 01:58:00;;;;;;;2.25;1.27;;;;;;;;;;5071508;28;20059;-72
2023/09/14 02:00:27;;;;;;;6.18;1.30;;;;;;;;;;5071718;28;20078;-72
2023/09/14 02:02:54;;;;;;;2.83;1.20;;;;;;;;;;5071323;28;20604;-73
2023/09/14 02:05:20;;;;;;;1.92;1.20;;;;;;;;;;5071715;28;20045;-73
2023/09/14 02:07:47;;;;;;;1.90;1.30;;;;;;;;;;5071039;28;20057;-73
2023/09/14 02:10:15;;;;;;;2.22;1.08;;;;;;;;;;5071492;28;20083;-73
2023/09/14 02:12:42;;;;;;;2.28;1.10;;;;;;;;;;5071346;28;20362;-74
2023/09/14 02:15:08;;;;;;;1.63;1.13;;;;;;;;;;5071201;28;20048;-74
2023/09/14 02:17:35;;;;;;;4.03;1.20;;;;;;;;;;5071395;28;20098;-73
2023/09/14 02:20:05;;;;;;;2.92;1.50;;;;;;;;;;5071170;28;20048;-74
2023/09/14 02:22:31;;;;;;;3.13;1.20;;;;;;;;;;5071324;28;20055;-72
2023/09/14 02:24:58;;;;;;;3.00;1.50;;;;;;;;;;5070819;28;20099;-74
2023/09/14 02:27:28;;;;;;;5.03;1.52;;;;;;;;;;5070935;28;20527;-73
2023/09/14 02:29:55;;;;;;;3.13;1.30;;;;;;;;;;5070838;28;20048;-71
2023/09/14 02:32:21;;;;;;;4.00;1.40;;;;;;;;;;5070972;28;20131;-74
2023/09/14 02:34:48;;;;;;;1.75;1.20;;;;;;;;;;5070533;28;20051;-74
2023/09/14 02:37:15;;;;;;;3.10;1.42;;;;;;;;;;5070728;28;20056;-74
2023/09/14 02:39:42;;;;;;;2.38;1.05;;;;;;;;;;5052503;28;20477;-73
2023/09/14 02:42:08;;;;;;;2.50;1.20;;;;;;;;;;5070839;28;20375;-74
2023/09/14 02:44:36;;;;;;;2.30;1.20;;;;;;;;;;5070219;28;20052;-72
2023/09/14 02:47:03;;;;;;;2.30;1.20;;;;;;;;;;5070217;28;20642;-73
2023/09/14 02:49:30;;;;;;;4.70;1.48;;;;;;;;;;5070026;28;20057;-74
2023/09/14 02:51:56;;;;;;;1.98;1.13;;;;;;;;;;5070437;28;20131;-74
2023/09/14 02:54:23;;;;;;;2.17;1.33;;;;;;;;;;5070478;28;20072;-73
2023/09/14 02:56:50;;;;;;;2.25;1.13;;;;;;;;;;5070458;28;20143;-73
2023/09/14 02:59:17;;;;;;;1.73;1.17;;;;;;;;;;5070077;28;20048;-73
2023/09/14 03:01:47;;;;;;;2.88;1.40;;;;;;;;;;5070455;28;20040;-74
2023/09/14 03:04:14;;;;;;;5.20;1.23;;;;;;;;;;5069911;28;20044;-73
2023/09/14 03:06:40;;;;;;;2.67;1.27;;;;;;;;;;5070030;28;20044;-74
2023/09/14 03:09:07;;;;;;;2.22;1.00;;;;;;;;;;5070113;28;20048;-73
2023/09/14 03:11:34;;;;;;;1.92;1.20;;;;;;;;;;5070242;28;20212;-74
2023/09/14 03:14:00;;;;;;;3.47;1.35;;;;;;;;;;5069930;28;20055;-72
2023/09/14 03:16:27;;;;;;;1.95;1.20;;;;;;;;;;5069658;28;20496;-73
2023/09/14 03:18:54;;;;;;;1.88;1.13;;;;;;;;;;5069779;28;20120;-74
2023/09/14 03:21:26;;;;;;;1.50;1.10;;;;;;;;;;5070114;28;20051;-74
2023/09/14 03:23:53;;;;;;;2.13;1.30;;;;;;;;;;5069610;28;20051;-73
2023/09/14 03:26:20;;;;;;;4.40;1.42;;;;;;;;;;5069920;28;20057;-73
2023/09/14 03:28:49;;;;;;;3.13;1.25;;;;;;;;;;5069837;28;20059;-74
2023/09/14 03:31:16;;;;;;;2.05;1.20;;;;;;;;;;5070184;28;20137;-74
2023/09/14 03:33:46;;;;;;;1.70;1.00;;;;;;;;;;5052430;28;20155;-73
2023/09/14 03:36:13;;;;;;;2.17;1.20;;;;;;;;;;5069725;28;20048;-73
2023/09/14 03:38:40;;;;;;;1.70;1.23;;;;;;;;;;5069438;28;20044;-74
2023/09/14 03:41:07;;;;;;;3.38;1.33;;;;;;;;;;5069639;28;20044;-73
2023/09/14 03:43:33;;;;;;;2.60;1.30;;;;;;;;;;5069591;28;20052;-74
2023/09/14 03:46:00;;;;;;;1.42;1.05;;;;;;;;;;5069400;28;20507;-73
2023/09/14 03:48:27;;;;;;;2.67;1.40;;;;;;;;;;5069753;28;20044;-72
2023/09/14 03:50:57;;;;;;;1.73;1.23;;;;;;;;;;5069203;28;20052;-73
2023/09/14 03:53:23;;;;;;;2.22;1.30;;;;;;;;;;5069276;28;20040;-73
2023/09/14 03:55:50;;;;;;;2.30;1.45;;;;;;;;;;5069502;28;20052;-73
2023/09/14 03:58:17;;;;;;;4.22;1.80;;;;;;;;;;5069586;28;20083;-72
2023/09/14 04:00:44;;;;;;;2.40;1.40;;;;;;;;;;5069562;28;20048;-72
2023/09/14 04:03:11;;;;;;;2.58;1.38;;;;;;;;;;5069379;28;20573;-72
2023/09/14 04:05:38;;;;;;;2.88;1.38;;;;;;;;;;5051397;28;20099;-71
2023/09/14 04:08:07;;;;;;;3.33;1.45;;;;;;;;;;5069029;28;20071;-72
2023/09/14 04:10:36;;;;;;;1.92;1.10;;;;;;;;;;5068917;28;20127;-73
2023/09/14 04:13:28;;;;;;;1.63;1.30;;;;;;;;;;5069585;28;20044;-72
2023/09/14 04:15:57;;;;;;;2.08;1.20;;;;;;;;;;5069037;28;20048;-73
2023/09/14 04:18:24;;;;;;;2.83;1.30;;;;;;;;;;5069070;28;20041;-72
2023/09/14 04:20:51;;;;;;;2.08;1.20;;;;;;;;;;5069237;28;20408;-73
2023/09/14 04:23:18;;;;;;;2.20;1.02;;;;;;;;;;5069342;28;20053;-73
2023/09/14 04:25:47;;;;;;;2.85;1.60;;;;;;;;;;5069169;28;20048;-72
2023/09/14 04:28:15;;;;;;;3.15;1.38;;;;;;;;;;5069113;28;20052;-72
2023/09/14 04:30:51;;;;;;;2.85;1.33;;;;;;;;;;5069039;28;20052;-73
2023/09/14 04:33:18;;;;;;;2.85;1.40;;;;;;;;;;5069070;28;20568;-72
2023/09/14 04:35:45;;;;;;;3.60;1.50;;;;;;;;;;5069146;28;20048;-72
2023/09/14 04:38:12;;;;;;;2.35;1.42;;;;;;;;;;5068906;28;20049;-73
2023/09/14 04:40:43;;;;;;;3.80;1.38;;;;;;;;;;5069086;28;20041;-74
2023/09/14 04:43:10;;;;;;;4.97;1.42;;;;;;;;;;5069234;28;20068;-74
2023/09/14 04:45:37;;;;;;;2.22;1.10;;;;;;;;;;5069100;28;20056;-73
2023/09/14 04:48:05;;;;;;;2.80;1.40;;;;;;;;;;5068685;28;20048;-73
2023/09/14 04:50:32;;;;;;;2.17;1.30;;;;;;;;;;5068547;28;20057;-73
2023/09/14 04:52:58;;;;;;;2.80;1.38;;;;;;;;;;5069029;28;20052;-73
2023/09/14 04:55:25;;;;;;;2.60;1.42;;;;;;;;;;5068893;28;20052;-73
2023/09/14 04:57:52;;;;;;;3.63;1.55;;;;;;;;;;5068863;28;20044;-74
2023/09/14 05:00:19;;;;;;;2.92;1.30;;;;;;;;;;5069002;28;20045;-74
2023/09/14 05:02:45;;;;;;;3.10;1.55;;;;;;;;;;5068618;28;20530;-73
2023/09/14 05:05:12;;;;;;;3.83;1.20;;;;;;;;;;5068561;28;20048;-73
2023/09/14 05:07:39;;;;;;;1.98;1.20;;;;;;;;;;5068536;28;20504;-74
2023/09/14 05:10:08;;;;;;;2.50;1.17;;;;;;;;;;5068969;28;20049;-73
2023/09/14 05:12:35;;;;;;;2.40;1.60;;;;;;;;;;5068944;28;20055;-73
2023/09/14 05:15:02;;;;;;;5.45;1.30;;;;;;;;;;5068452;28;20040;-73
2023/09/14 05:17:29;;;;;;;2.28;1.45;;;;;;;;;;5068691;28;20053;-73
2023/09/14 05:19:56;;;;;;;4.72;1.40;;;;;;;;;;5068790;28;20048;-74
2023/09/14 05:22:25;;;;;;;4.60;1.20;;;;;;;;;;5054154;28;20047;-73
2023/09/14 05:24:52;;;;;;;2.40;1.15;;;;;;;;;;5072304;28;20050;-73
2023/09/14 05:27:20;;;;;;;2.30;1.40;;;;;;;;;;5072127;28;20123;-73
2023/09/14 05:29:46;;;;;;;1.95;1.30;;;;;;;;;;5072231;28;20048;-72
2023/09/14 05:32:13;;;;;;;1.98;1.30;;;;;;;;;;5072098;28;20045;-73
2023/09/14 05:34:40;;;;;;;1.25;1.00;;;;;;;;;;5072290;28;20044;-73
2023/09/14 05:37:07;;;;;;;2.45;1.50;;;;;;;;;;5071906;28;20064;-73
2023/09/14 05:39:34;;;;;;;2.05;1.10;;;;;;;;;;5071536;28;20389;-74
2023/09/14 05:42:01;;;;;;;3.75;1.40;;;;;;;;;;5071821;28;20040;-73
2023/09/14 05:44:27;;;;;;;2.90;1.30;;;;;;;;;;5072043;28;20052;-73
2023/09/14 05:46:54;;;;;;;3.05;1.50;;;;;;;;;;5071915;28;20041;-74
2023/09/14 05:49:21;;;;;;;3.97;1.55;;;;;;;;;;5071476;28;20508;-73
2023/09/14 05:51:48;;;;;;;2.72;1.55;;;;;;;;;;5071561;28;20083;-73
2023/09/14 05:54:14;;;;;;;5.63;1.60;;;;;;;;;;5071585;28;20557;-73
2023/09/14 05:56:42;;;;;;;4.95;1.50;;;;;;;;;;5071077;28;20681;-73
2023/09/14 05:59:08;;;;;;;2.55;1.38;;;;;;;;;;5071457;28;20044;-74
2023/09/14 06:01:55;;;;;;;2.03;1.48;;;;;;;;;;5071059;28;20045;-73
2023/09/14 06:04:22;;;;;;;3.30;1.50;;;;;;;;;;5071465;28;20492;-71
2023/09/14 06:06:49;;;;;;;3.58;1.60;;;;;;;;;;5071206;28;20463;-74
2023/09/14 06:09:16;;;;;;;2.47;1.50;;;;;;;;;;5071277;28;20090;-74
2023/09/14 06:11:44;;;;;;;3.15;1.38;;;;;;;;;;5071392;28;20048;-73
2023/09/14 06:14:10;;;;;;;3.92;1.33;;;;;;;;;;5071490;28;20080;-72
2023/09/14 06:16:37;;;;;;;3.42;1.70;;;;;;;;;;5070974;28;20044;-73
2023/09/14 06:19:04;;;;;;;4.55;1.50;;;;;;;;;;5070995;28;20491;-72
2023/09/14 06:21:32;;;;;;;4.40;1.42;;;;;;;;;;5070863;28;20607;-74
2023/09/14 06:23:59;;;;;;;6.38;1.80;;;;;;;;;;5070978;28;20041;-73
2023/09/14 06:26:29;;;;;;;2.83;1.35;;;;;;;;;;5070732;28;20051;-73
2023/09/14 06:28:56;;;;;;;2.25;1.42;;;;;;;;;;5071444;28;20041;-71
2023/09/14 06:31:28;;;;;;;3.40;1.40;;;;;;;;;;5070190;28;20047;-70
2023/09/14 06:33:55;;;;;;;3.80;1.20;;;;;;;;;;5070730;28;20528;-73
2023/09/14 06:36:21;;;;;;;3.00;1.58;;;;;;;;;;5070430;28;20481;-71
2023/09/14 06:38:48;;;;;;;3.67;1.33;;;;;;;;;;5070582;28;20052;-74
2023/09/14 06:41:18;;;;;;;3.40;1.55;;;;;;;;;;5070688;28;20102;-73
2023/09/14 06:43:45;;;;;;;2.55;1.55;;;;;;;;;;5070835;28;20040;-73
2023/09/14 06:46:13;;;;;;;2.90;1.50;;;;;;;;;;5070686;28;20044;-73
2023/09/14 06:48:40;;;;;;;3.60;1.60;;;;;;;;;;5070290;28;20044;-73
2023/09/14 06:51:07;;;;;;;8.05;1.90;;;;;;;;;;5052870;28;20106;-74
2023/09/14 06:53:34;;;;;;;3.10;1.73;;;;;;;;;;5070274;28;20051;-74
2023/09/14 06:56:08;;;;;;;2.20;1.60;;;;;;;;;;5070230;28;20048;-72
2023/09/14 06:58:35;;;;;;;5.85;2.03;;;;;;;;;;5070264;28;20045;-73
2023/09/14 07:01:04;;;;;;;3.63;1.92;;;;;;;;;;5070549;28;20119;-73
2023/09/14 07:03:33;;;;;;;5.03;2.20;;;;;;;;;;5070273;28;20051;-73
2023/09/14 07:06:01;;;;;;;4.47;1.73;;;;;;;;;;5070185;28;20050;-72
2023/09/14 07:08:28;;;;;;;3.08;1.83;;;;;;;;;;5069642;28;20876;-73
2023/09/14 07:10:55;;;;;;;2.92;1.60;;;;;;;;;;5070117;28;20090;-73
2023/09/14 07:13:24;;;;;;;4.32;2.10;;;;;;;;;;5069903;28;20044;-72
2023/09/14 07:15:51;;;;;;;3.97;2.00;;;;;;;;;;5070050;28;20052;-74
2023/09/14 07:18:27;;;;;;;4.30;2.30;;;;;;;;;;5069479;28;20056;-73
2023/09/14 07:20:55;;;;;;;2.35;1.50;;;;;;;;;;5070115;28;20071;-74
2023/09/14 07:23:22;;;;;;;5.20;2.10;;;;;;;;;;5069760;28;20106;-73
2023/09/14 07:25:49;;;;;;;2.92;1.92;;;;;;;;;;5069993;28;20044;-74
2023/09/14 07:28:20;;;;;;;5.13;2.38;;;;;;;;;;5069526;28;20128;-73
2023/09/14 07:30:49;;;;;;;3.53;2.20;;;;;;;;;;5069645;28;20048;-74
2023/09/14 07:33:16;;;;;;;4.03;2.25;;;;;;;;;;5051648;28;20110;-72
2023/09/14 07:35:45;;;;;;;4.30;1.90;;;;;;;;;;5070019;28;20131;-72
2023/09/14 07:38:12;;;;;;;4.70;2.30;;;;;;;;;;5069235;28;20048;-72
2023/09/14 07:40:40;;;;;;;3.40;1.95;;;;;;;;;;5069780;28;20075;-73
2023/09/14 07:43:07;;;;;;;3.30;1.77;;;;;;;;;;5068522;28;20064;-74
2023/09/14 07:45:34;;;;;;;2.75;1.85;;;;;;;;;;5069913;28;20048;-73
2023/09/14 07:48:03;;;;;;;3.38;1.92;;;;;;;;;;5058988;28;20041;-73
2023/09/14 07:50:29;;;;;;;3.63;2.00;;;;;;;;;;5049159;28;20053;-73
2023/09/14 07:52:56;;;;;;;3.47;1.95;;;;;;;;;;5049680;28;20044;-74
2023/09/14 07:55:23;;;;;;;3.28;1.70;;;;;;;;;;5049504;28;20045;-75
2023/09/14 07:57:50;;;;;;;4.82;1.90;;;;;;;;;;5049127;28;20464;-74
2023/09/14 08:00:17;;;;;;;3.20;1.92;;;;;;;;;;5049550;28;20056;-74
2023/09/14 08:02:43;;;;;;;3.38;1.83;;;;;;;;;;5049461;28;20049;-74
2023/09/14 08:05:10;;;;;;;4.65;2.20;;;;;;;;;;5049126;28;20053;-75
2023/09/14 08:07:37;;;;;;;3.95;2.00;;;;;;;;;;5048888;28;20055;-74
2023/09/14 08:10:05;;;;;;;3.78;2.00;;;;;;;;;;5049010;28;20049;-74
2023/09/14 08:12:32;;;;;;;7.38;1.70;;;;;;;;;;5049269;28;20124;-74
2023/09/14 08:14:58;;;;;;;3.30;1.60;;;;;;;;;;5049799;28;20049;-75
2023/09/14 08:17:27;;;;;;;3.47;1.73;;;;;;;;;;5048907;28;20636;-75
2023/09/14 08:19:54;;;;;;;2.80;1.77;;;;;;;;;;5049549;28;20051;-74
2023/09/14 08:22:22;;;;;;;3.95;2.22;;;;;;;;;;5048976;28;20061;-74
2023/09/14 08:24:52;;;;;;;3.72;2.10;;;;;;;;;;5048852;28;20053;-74
2023/09/14 08:27:19;;;;;;;3.95;1.80;;;;;;;;;;5048894;28;20083;-74
2023/09/14 08:29:46;;;;;;;5.20;2.08;;;;;;;;;;5049000;28;20492;-74
2023/09/14 08:32:12;;;;;;;4.00;1.80;;;;;;;;;;5049102;28;20489;-75
2023/09/14 08:34:39;;;;;;;6.32;1.60;;;;;;;;;;5049115;28;20041;-74
2023/09/14 08:37:08;;;;;;;3.25;2.00;;;;;;;;;;5049100;28;20045;-74
2023/09/14 08:39:36;;;;;;;3.72;1.95;;;;;;;;;;5048953;28;20046;-75
2023/09/14 08:42:03;;;;;;;5.55;1.65;;;;;;;;;;5048922;28;20548;-73
2023/09/14 08:44:34;;;;;;;3.65;1.60;;;;;;;;;;5049316;28;20049;-74
2023/09/14 08:47:01;;;;;;;3.63;1.95;;;;;;;;;;5048874;28;20492;-75
2023/09/14 08:49:30;;;;;;;6.55;2.28;;;;;;;;;;5048550;28;20115;-75
2023/09/14 08:52:01;;;;;;;3.63;1.70;;;;;;;;;;5049070;28;20057;-74
2023/09/14 08:54:28;;;;;;;2.70;1.52;;;;;;;;;;5049771;28;20044;-73
2023/09/14 08:56:56;;;;;;;4.60;1.75;;;;;;;;;;5052962;28;20044;-74
2023/09/14 08:59:24;;;;;;;5.97;1.75;;;;;;;;;;5052167;28;20106;-74
2023/09/14 09:01:52;;;;;;;3.88;1.90;;;;;;;;;;5052676;28;20523;-75
2023/09/14 09:04:19;;;;;;;4.45;1.75;;;;;;;;;;5052327;28;20099;-75
2023/09/14 09:06:46;;;;;;;4.13;1.52;;;;;;;;;;5052823;28;20141;-73
2023/09/14 09:09:19;;;;;;;5.20;2.58;;;;;;;;;;5051302;28;20278;-73
2023/09/14 09:11:47;;;;;;;4.18;2.13;;;;;;;;;;5052512;28;20048;-72
2023/09/14 09:14:14;;;;;;;5.28;2.55;;;;;;;;;;5052288;28;20045;-74
2023/09/14 09:16:41;;;;;;;3.83;2.50;;;;;;;;;;5052207;28;20048;-74
2023/09/14 09:19:10;;;;;;;6.63;2.47;;;;;;;;;;5052254;28;20041;-73
2023/09/14 09:21:38;;;;;;;3.72;2.10;;;;;;;;;;5052046;28;20087;-74
2023/09/14 09:24:06;;;;;;;4.38;2.40;;;;;;;;;;5050822;28;20056;-74
2023/09/14 09:26:37;;;;;;;4.82;2.42;;;;;;;;;;5052440;28;20051;-74
2023/09/14 09:29:19;;;;;;;5.32;1.95;;;;;;;;;;5051987;28;20048;-74
2023/09/14 09:31:47;;;;;;;4.03;2.10;;;;;;;;;;5052121;28;20049;-74
2023/09/14 09:34:14;;;;;;;4.30;2.35;;;;;;;;;;5052036;28;20103;-74
2023/09/14 09:36:41;;;;;;;3.42;1.80;;;;;;;;;;5051906;28;20041;-75
2023/09/14 09:39:11;;;;;;;3.97;1.70;;;;;;;;;;5051510;28;20452;-74
2023/09/14 09:41:39;;;;;;;2.80;1.92;;;;;;;;;;5050522;28;20048;-74
2023/09/14 09:44:07;;;;;;;6.07;2.00;;;;;;;;;;5051641;28;20048;-74
2023/09/14 09:46:36;;;;;;;2.55;1.73;;;;;;;;;;5051949;28;20045;-73
2023/09/14 09:49:25;;;;;;;3.57;1.80;;;;;;;;;;5051570;28;20128;-73
2023/09/14 09:51:52;;;;;;;4.30;1.83;;;;;;;;;;5051265;28;20787;-74
2023/09/14 09:54:20;;;;;;;4.82;2.17;;;;;;;;;;5051114;28;20463;-74
2023/09/14 09:56:47;;;;;;;3.20;1.90;;;;;;;;;;5051577;28;20087;-74
2023/09/14 09:59:15;;;;;;;3.90;2.30;;;;;;;;;;5051314;28;20439;-74
2023/09/14 10:01:46;;;;;;;3.30;1.85;;;;;;;;;;5051681;28;20088;-75
2023/09/14 10:04:16;;;;;;;3.13;1.70;;;;;;;;;;5051349;28;20428;-74
2023/09/14 10:06:55;;;;;;;3.30;1.60;;;;;;;;;;5050465;28;20574;-74
2023/09/14 10:09:24;;;;;;;3.22;1.60;;;;;;;;;;5050959;28;20512;-74
2023/09/14 10:12:00;;;;;;;3.83;1.70;;;;;;;;;;5051109;28;20453;-74
2023/09/14 10:14:29;;;;;;;3.97;1.70;;;;;;;;;;5051185;28;20044;-74
2023/09/14 10:16:58;;;;;;;3.38;1.95;;;;;;;;;;5051289;28;20049;-74
2023/09/14 10:19:26;;;;;;;3.88;1.70;;;;;;;;;;5051052;28;20519;-73
2023/09/14 10:21:55;;;;;;;5.93;1.95;;;;;;;;;;5051131;28;20092;-75
2023/09/14 10:24:24;;;;;;;3.17;1.63;;;;;;;;;;5050910;28;20041;-74
2023/09/14 10:26:52;;;;;;;2.28;1.63;;;;;;;;;;5051343;28;20060;-74
2023/09/14 10:29:21;;;;;;;3.50;1.90;;;;;;;;;;5050569;28;20485;-73
2023/09/14 10:31:50;;;;;;;3.58;2.00;;;;;;;;;;5050911;28;20041;-74
2023/09/14 10:34:17;;;;;;;4.00;2.00;;;;;;;;;;5051067;28;20078;-73
2023/09/14 10:36:46;;;;;;;4.38;1.77;;;;;;;;;;5051189;28;20042;-73
2023/09/14 10:39:16;;;;;;;4.80;1.77;;;;;;;;;;5050971;28;20053;-74
2023/09/14 10:41:44;;;;;;;2.50;1.73;;;;;;;;;;5050727;28;20130;-73
2023/09/14 10:44:11;;;;;;;3.97;1.52;;;;;;;;;;5050565;28;20051;-71
2023/09/14 10:46:41;;;;;;;3.97;1.80;;;;;;;;;;5050951;28;20041;-74
2023/09/14 10:49:09;;;;;;;3.47;1.65;;;;;;;;;;5050555;28;20060;-74
2023/09/14 10:51:36;;;;;;;4.30;1.52;;;;;;;;;;5050729;28;20048;-74
2023/09/14 10:54:03;;;;;;;2.88;1.60;;;;;;;;;;5050631;28;20049;-72
2023/09/14 10:56:34;;;;;;;2.28;1.45;;;;;;;;;;5051029;28;20052;-73
2023/09/14 10:59:08;;;;;;;4.45;1.60;;;;;;;;;;5050079;28;20519;-72
2023/09/14 11:01:50;;;;;;;3.65;1.58;;;;;;;;;;5050585;28;20041;-74
2023/09/14 11:04:21;;;;;;;3.88;1.60;;;;;;;;;;5050379;28;20056;-72
2023/09/14 11:06:54;;;;;;;4.35;1.67;;;;;;;;;;5050911;28;20049;-73
2023/09/14 11:09:23;;;;;;;5.32;1.80;;;;;;;;;;5049984;28;20067;-74
2023/09/14 11:11:52;;;;;;;4.85;1.40;;;;;;;;;;5050115;28;20076;-75
2023/09/14 11:14:24;;;;;;;2.55;1.50;;;;;;;;;;5050150;28;20048;-74
2023/09/14 11:16:54;;;;;;;1.75;1.38;;;;;;;;;;5050307;28;20045;-74
2023/09/14 11:19:46;;;;;;;3.05;1.70;;;;;;;;;;5049657;28;20084;-73
2023/09/14 11:22:25;;;;;;;3.78;1.65;;;;;;;;;;5043616;28;20079;-72
2023/09/14 11:24:54;;;;;;;4.13;1.55;;;;;;;;;;5049671;28;20459;-73
2023/09/14 11:27:23;;;;;;;4.90;1.40;;;;;;;;;;5050188;28;20124;-72
2023/09/14 11:29:52;;;;;;;2.33;1.42;;;;;;;;;;5050048;28;20060;-73
2023/09/14 11:32:26;;;;;;;2.47;1.33;;;;;;;;;;5050004;28;20045;-73
2023/09/14 11:34:57;;;;;;;4.25;1.75;;;;;;;;;;5049842;28;20052;-71
2023/09/14 11:37:30;;;;;;;3.75;1.60;;;;;;;;;;5049866;28;20076;-68
2023/09/14 11:40:06;;;;;;;4.93;1.52;;;;;;;;;;5049501;28;20053;-73
2023/09/14 11:43:07;;;;;;;3.78;1.60;;;;;;;;;;5049715;28;20049;-72
2023/09/14 11:45:41;;;;;;;2.65;1.70;;;;;;;;;;5049405;28;20151;-72
2023/09/14 11:48:14;;;;;;;3.47;1.70;;;;;;;;;;5049802;28;20052;-73
2023/09/14 11:50:46;;;;;;;3.42;1.52;;;;;;;;;;5049190;28;20056;-73
2023/09/14 11:53:21;;;;;;;2.70;1.60;;;;;;;;;;5049438;28;20155;-73
2023/09/14 11:55:50;;;;;;;4.93;1.42;;;;;;;;;;5049340;28;20049;-73
2023/09/14 11:58:17;;;;;;;3.20;1.98;;;;;;;;;;5049464;28;20084;-73
2023/09/14 12:00:49;;;;;;;2.65;1.60;;;;;;;;;;5049722;28;20064;-72
2023/09/14 12:03:16;;;;;;;3.40;1.75;;;;;;;;;;5049623;28;20045;-73
2023/09/14 12:05:43;;;;;;;2.78;1.52;;;;;;;;;;5049180;28;20119;-74
2023/09/14 12:08:11;;;;;;;2.53;1.40;;;;;;;;;;5047936;28;20045;-74
2023/09/14 12:10:39;;;;;;;2.70;1.73;;;;;;;;;;5049044;28;20532;-74
2023/09/14 12:13:16;;;;;;;2.03;1.33;;;;;;;;;;5049265;28;20613;-73
2023/09/14 12:15:46;;;;;;;2.15;1.45;;;;;;;;;;5049096;28;20485;-72
2023/09/14 12:18:16;;;;;;;3.10;1.50;;;;;;;;;;5049349;28;20059;-74
2023/09/14 12:20:45;;;;;;;;;;;;;;;;;;5049761;28;20346;-72
2023/09/14 12:23:13;;;;;;;2.78;1.38;;;;;;;;;;5049221;28;20455;-72
2023/09/14 12:25:41;;;;;;;4.15;1.38;;;;;;;;;;5049050;28;20040;-73
2023/09/14 12:28:09;;;;;;;3.05;1.20;;;;;;;;;;5049239;28;20435;-71
2023/09/14 12:30:37;;;;;;;2.47;1.60;;;;;;;;;;5052008;28;20523;-74
2023/09/14 12:33:06;;;;;;;2.78;1.27;;;;;;;;;;5053104;28;20045;-73
2023/09/14 12:35:32;;;;;;;2.03;1.30;;;;;;;;;;5053199;28;20044;-73
2023/09/14 12:38:03;;;;;;;2.80;1.60;;;;;;;;;;5053063;28;20465;-73
2023/09/14 12:40:37;;;;;;;2.28;1.38;;;;;;;;;;5052786;28;20049;-74
2023/09/14 12:43:05;;;;;;;3.60;1.50;;;;;;;;;;5052858;28;20048;-74
2023/09/14 12:45:33;;;;;;;2.00;1.38;;;;;;;;;;5052727;28;20048;-73
2023/09/14 12:48:05;;;;;;;2.78;1.60;;;;;;;;;;5051737;28;20045;-74
2023/09/14 12:50:35;;;;;;;2.10;1.40;;;;;;;;;;5052620;28;20052;-72
2023/09/14 12:53:09;;;;;;;1.63;1.13;;;;;;;;;;5052673;28;20049;-74
2023/09/14 12:55:46;;;;;;;5.55;1.42;;;;;;;;;;5052860;28;20082;-74
2023/09/14 12:58:19;;;;;;;3.33;1.50;;;;;;;;;;5052964;28;20124;-74
2023/09/14 13:00:51;;;;;;;1.98;1.38;;;;;;;;;;5052790;28;20060;-71
2023/09/14 13:03:21;;;;;;;2.17;1.40;;;;;;;;;;5052834;28;20045;-74
2023/09/14 13:05:54;;;;;;;3.25;1.40;;;;;;;;;;5052576;28;20045;-74
2023/09/14 13:08:20;;;;;;;2.35;1.17;;;;;;;;;;5052307;28;20045;-73
2023/09/14 13:10:47;;;;;;;3.35;1.30;;;;;;;;;;5052918;28;20051;-74
2023/09/14 13:13:16;;;;;;;1.42;1.08;;;;;;;;;;5052292;28;20628;-72
2023/09/14 13:15:44;;;;;;;2.45;1.35;;;;;;;;;;5052326;28;20471;-74
2023/09/14 13:18:14;;;;;;;2.78;1.60;;;;;;;;;;5052245;28;20567;-74
2023/09/14 13:20:49;;;;;;;3.05;1.17;;;;;;;;;;5052112;28;20383;-73
2023/09/14 13:23:16;;;;;;;2.10;1.48;;;;;;;;;;5052273;28;20501;-73
2023/09/14 13:25:43;;;;;;;2.42;1.40;;;;;;;;;;5051937;28;20548;-72
2023/09/14 13:28:13;;;;;;;3.25;1.63;;;;;;;;;;5052346;28;20118;-74
2023/09/14 13:30:40;;;;;;;3.28;1.30;;;;;;;;;;5052538;28;20067;-74
2023/09/14 13:33:07;;;;;;;2.17;1.35;;;;;;;;;;5052152;28;20053;-73
2023/09/14 13:35:34;;;;;;;2.22;1.40;;;;;;;;;;5052268;28;20049;-74
2023/09/14 13:38:02;;;;;;;1.55;1.20;;;;;;;;;;5052215;28;20044;-73
2023/09/14 13:40:29;;;;;;;3.60;1.27;;;;;;;;;;5051089;28;20224;-74
2023/09/14 13:42:59;;;;;;;1.70;1.10;;;;;;;;;;5033569;28;20497;-73
2023/09/14 13:45:28;;;;;;;2.15;1.48;;;;;;;;;;5051835;28;20041;-73
2023/09/14 13:47:57;;;;;;;1.98;1.38;;;;;;;;;;5051674;28;20045;-74
2023/09/14 13:50:24;;;;;;;1.85;1.30;;;;;;;;;;5051751;28;20516;-73
2023/09/14 13:52:51;;;;;;;2.28;1.30;;;;;;;;;;5051355;28;20647;-73
2023/09/14 13:55:18;;;;;;;2.22;1.30;;;;;;;;;;5051818;28;20049;-71
2023/09/14 13:57:46;;;;;;;2.20;1.30;;;;;;;;;;5051840;28;20041;-72
2023/09/14 14:00:15;;;;;;;2.03;1.45;;;;;;;;;;5051579;28;20135;-71
2023/09/14 14:02:46;;;;;;;2.22;1.23;;;;;;;;;;5051430;28;20049;-73
2023/09/14 14:05:13;;;;;;;4.00;1.20;;;;;;;;;;5051370;28;20562;-69
2023/09/14 14:07:40;;;;;;;1.80;1.23;;;;;;;;;;5051470;28;20052;-71
2023/09/14 14:10:08;;;;;;;3.45;1.58;;;;;;;;;;5034113;28;20049;-72
2023/09/14 14:12:35;;;;;;;2.47;1.30;;;;;;;;;;5051048;28;20508;-73
2023/09/14 14:15:02;;;;;;;2.03;1.17;;;;;;;;;;5051837;28;20044;-73
2023/09/14 14:17:29;;;;;;;1.95;1.20;;;;;;;;;;5051140;28;20045;-74
2023/09/14 14:19:57;;;;;;;1.70;1.15;;;;;;;;;;5051236;28;20053;-73
2023/09/14 14:22:24;;;;;;;1.98;1.13;;;;;;;;;;5050856;28;20072;-72
2023/09/14 14:24:51;;;;;;;2.28;1.25;;;;;;;;;;5051551;28;20044;-73
2023/09/14 14:27:18;;;;;;;1.67;1.00;;;;;;;;;;5050934;28;20128;-71
2023/09/14 14:29:45;;;;;;;1.60;1.20;;;;;;;;;;5051102;28;20045;-73
2023/09/14 14:32:12;;;;;;;1.83;1.20;;;;;;;;;;5051086;28;20056;-73
2023/09/14 14:34:39;;;;;;;2.17;1.20;;;;;;;;;;5051097;28;20041;-73
2023/09/14 14:37:06;;;;;;;2.03;0.90;;;;;;;;;;5050716;28;20068;-72
2023/09/14 14:39:32;;;;;;;1.30;1.00;;;;;;;;;;5050676;28;20505;-72
2023/09/14 14:41:59;;;;;;;2.72;1.23;;;;;;;;;;5050868;28;20076;-72
2023/09/14 14:44:26;;;;;;;1.92;1.08;;;;;;;;;;5051136;28;20076;-73
2023/09/14 14:46:53;;;;;;;7.22;1.45;;;;;;;;;;5050636;28;20053;-70
2023/09/14 14:49:20;;;;;;;12.48;2.40;;;;;;;;;;5050866;28;20049;-69
2023/09/14 14:51:47;;;;;;;2.22;1.30;;;;;;;;;;5050025;28;20103;-73